createdAt,value
2018-12-24T00:02:20.135Z,50.38
2018-12-24T00:04:47.724Z,50.03
2018-12-24T00:07:15.467Z,50.12
2018-12-24T00:09:43.059Z,49.97
2018-12-24T00:12:10.770Z,50.50
2018-12-24T00:14:38.405Z,50.40
2018-12-24T00:17:06.012Z,50.56
2018-12-24T00:19:35.311Z,50.22
2018-12-24T00:22:03.082Z,50.36
2018-12-24T00:24:30.859Z,50.49
2018-12-24T00:26:58.472Z,50.45
2018-12-24T00:29:26.108Z,50.50
2018-12-24T00:31:53.867Z,50.68
2018-12-24T00:34:21.498Z,50.55
2018-12-24T00:36:49.068Z,50.55
2018-12-24T00:39:16.808Z,50.94
2018-12-24T00:42:15.681Z,50.69
2018-12-24T00:44:36.724Z,50.49
2018-12-24T00:47:04.350Z,50.52
2018-12-24T00:50:01.432Z,50.58
2018-12-24T00:52:28.660Z,50.64
2018-12-24T00:54:55.854Z,50.62
2018-12-24T00:57:23.105Z,50.58
2018-12-24T00:59:50.309Z,50.60
2018-12-24T01:02:17.544Z,50.61
2018-12-24T01:04:44.772Z,50.57
2018-12-24T01:07:11.996Z,50.65
2018-12-24T01:09:39.171Z,50.65
2018-12-24T01:12:06.405Z,50.58
2018-12-24T01:14:33.559Z,50.63
2018-12-24T01:17:00.778Z,50.64
2018-12-24T01:19:28.043Z,50.61
2018-12-24T01:21:55.258Z,50.61
2018-12-24T01:24:41.997Z,50.88
2018-12-24T01:27:28.649Z,50.91
2018-12-24T01:29:55.881Z,50.91
2018-12-24T01:32:23.109Z,50.75
2018-12-24T01:34:50.353Z,50.80
2018-12-24T01:37:17.616Z,50.84
2018-12-24T01:39:44.981Z,50.80
2018-12-24T01:42:12.308Z,50.81
2018-12-24T01:44:39.512Z,50.83
2018-12-24T01:47:06.839Z,50.90
2018-12-24T01:49:34.197Z,50.82
2018-12-24T01:52:01.390Z,50.86
2018-12-24T01:54:28.598Z,50.81
2018-12-24T01:56:55.972Z,50.79
2018-12-24T01:59:23.230Z,50.82
2018-12-24T02:01:50.434Z,50.83
2018-12-24T02:04:17.654Z,50.81
2018-12-24T02:06:44.863Z,50.83
2018-12-24T02:09:31.527Z,50.94
2018-12-24T02:11:58.781Z,50.94
2018-12-24T02:14:25.980Z,50.93
2018-12-24T02:16:53.345Z,50.92
2018-12-24T02:19:20.548Z,50.95
2018-12-24T02:21:47.773Z,50.96
2018-12-24T02:24:15.124Z,51.01
2018-12-24T02:26:42.304Z,51.01
2018-12-24T02:29:09.510Z,51.09
2018-12-24T02:31:36.720Z,51.05
2018-12-24T02:34:03.924Z,51.06
2018-12-24T02:36:31.240Z,51.13
2018-12-24T02:38:58.429Z,51.18
2018-12-24T02:41:25.660Z,51.13
2018-12-24T02:43:52.930Z,51.14
2018-12-24T02:46:20.113Z,51.12
2018-12-24T02:48:47.346Z,51.11
2018-12-24T02:51:14.599Z,51.17
2018-12-24T02:53:41.878Z,51.19
2018-12-24T02:56:09.238Z,51.21
2018-12-24T02:58:36.422Z,51.12
2018-12-24T03:01:03.606Z,51.16
2018-12-24T03:03:30.797Z,51.24
2018-12-24T03:05:58.036Z,51.25
2018-12-24T03:08:25.270Z,51.26
2018-12-24T03:10:52.630Z,51.31
2018-12-24T03:13:19.802Z,51.37
2018-12-24T03:16:06.470Z,51.62
2018-12-24T03:18:33.678Z,51.62
2018-12-24T03:21:00.925Z,51.33
2018-12-24T03:23:28.173Z,51.36
2018-12-24T03:25:55.395Z,51.35
2018-12-24T03:28:22.642Z,51.39
2018-12-24T03:30:49.852Z,51.42
2018-12-24T03:33:17.034Z,51.36
2018-12-24T03:35:44.400Z,51.33
2018-12-24T03:38:11.612Z,51.37
2018-12-24T03:40:38.851Z,51.38
2018-12-24T03:43:12.399Z,51.33
2018-12-24T03:45:35.351Z,51.39
2018-12-24T03:48:02.540Z,51.39
2018-12-24T03:50:29.753Z,51.36
2018-12-24T03:52:56.973Z,51.37
2018-12-24T03:55:24.173Z,51.42
2018-12-24T03:57:51.346Z,51.46
2018-12-24T04:00:18.579Z,51.46
2018-12-24T04:02:45.825Z,51.46
2018-12-24T04:05:13.090Z,51.44
2018-12-24T04:07:40.276Z,51.49
2018-12-24T04:10:07.488Z,51.49
2018-12-24T04:12:34.747Z,51.49
2018-12-24T04:15:01.917Z,51.46
2018-12-24T04:17:29.127Z,51.53
2018-12-24T04:19:56.365Z,51.59
2018-12-24T04:22:23.616Z,51.64
2018-12-24T04:24:51.039Z,51.67
2018-12-24T04:27:18.244Z,51.61
2018-12-24T04:29:45.564Z,51.64
2018-12-24T04:32:12.771Z,51.64
2018-12-24T04:34:39.936Z,51.62
2018-12-24T04:37:07.309Z,51.65
2018-12-24T04:39:34.521Z,51.58
2018-12-24T04:42:01.706Z,51.45
2018-12-24T04:44:28.896Z,51.38
2018-12-24T04:47:15.529Z,51.23
2018-12-24T04:49:42.836Z,51.23
2018-12-24T04:52:10.038Z,51.23
2018-12-24T04:54:37.271Z,51.09
2018-12-24T04:57:04.528Z,51.01
2018-12-24T04:59:31.766Z,50.95
2018-12-24T05:01:58.940Z,50.96
2018-12-24T05:04:26.156Z,50.94
2018-12-24T05:06:53.352Z,50.91
2018-12-24T05:09:20.710Z,50.88
2018-12-24T05:11:47.886Z,50.91
2018-12-24T05:14:15.056Z,50.88
2018-12-24T05:16:42.444Z,50.83
2018-12-24T05:19:09.617Z,50.75
2018-12-24T05:21:37.119Z,50.70
2018-12-24T05:24:04.379Z,50.80
2018-12-24T05:26:31.586Z,50.77
2018-12-24T05:28:59.001Z,50.76
2018-12-24T05:31:26.189Z,50.72
2018-12-24T05:33:53.404Z,50.76
2018-12-24T05:36:20.630Z,50.83
2018-12-24T05:38:47.843Z,50.81
2018-12-24T05:41:15.054Z,50.78
2018-12-24T05:43:49.372Z,50.76
2018-12-24T05:46:11.394Z,50.74
2018-12-24T05:48:38.594Z,50.73
2018-12-24T05:51:05.855Z,50.77
2018-12-24T05:53:33.094Z,50.81
2018-12-24T05:56:00.426Z,50.80
2018-12-24T05:58:27.615Z,50.75
2018-12-24T06:00:54.941Z,50.69
2018-12-24T06:03:22.166Z,50.67
2018-12-24T06:05:49.342Z,50.72
2018-12-24T06:08:16.611Z,50.76
2018-12-24T06:10:43.795Z,50.72
2018-12-24T06:13:11.021Z,50.71
2018-12-24T06:15:38.215Z,50.72
2018-12-24T06:18:05.443Z,50.72
2018-12-24T06:20:37.645Z,50.70
2018-12-24T06:23:01.732Z,50.64
2018-12-24T06:25:28.934Z,50.61
2018-12-24T06:27:56.161Z,50.62
2018-12-24T06:30:23.370Z,50.71
2018-12-24T06:32:50.569Z,50.69
2018-12-24T06:35:17.777Z,50.65
2018-12-24T06:37:44.984Z,50.70
2018-12-24T06:40:12.198Z,50.68
2018-12-24T06:42:39.547Z,50.64
2018-12-24T06:45:06.745Z,50.59
2018-12-24T06:47:33.924Z,50.60
2018-12-24T06:50:01.168Z,50.63
2018-12-24T06:52:28.345Z,50.64
2018-12-24T06:54:55.621Z,50.62
2018-12-24T06:57:22.828Z,50.71
2018-12-24T06:59:50.020Z,50.75
2018-12-24T07:02:17.298Z,50.75
2018-12-24T07:04:44.561Z,50.80
2018-12-24T07:07:11.764Z,50.76
2018-12-24T07:09:39.049Z,50.84
2018-12-24T07:12:06.261Z,50.86
2018-12-24T07:14:33.438Z,50.86
2018-12-24T07:17:00.681Z,51.05
2018-12-24T07:19:27.895Z,51.05
2018-12-24T07:21:55.201Z,50.90
2018-12-24T07:24:22.430Z,50.86
2018-12-24T07:26:49.655Z,50.92
2018-12-24T07:29:16.873Z,50.91
2018-12-24T07:31:44.172Z,50.95
2018-12-24T07:34:11.344Z,50.96
2018-12-24T07:36:38.557Z,50.97
2018-12-24T07:39:25.211Z,50.61
2018-12-24T07:41:52.429Z,50.61
2018-12-24T07:44:24.171Z,50.81
2018-12-24T07:46:48.961Z,50.85
2018-12-24T07:49:16.233Z,51.09
2018-12-24T07:51:43.425Z,50.95
2018-12-24T07:54:30.119Z,50.82
2018-12-24T07:56:57.334Z,50.82
2018-12-24T07:59:24.588Z,51.01
2018-12-24T08:02:11.218Z,50.91
2018-12-24T08:04:38.431Z,50.91
2018-12-24T08:07:05.633Z,50.89
2018-12-24T08:09:32.985Z,50.82
2018-12-24T08:12:00.244Z,50.94
2018-12-24T08:14:33.002Z,50.97
2018-12-24T08:16:56.560Z,51.00
2018-12-24T08:19:23.790Z,50.93
2018-12-24T08:21:51.005Z,50.97
2018-12-24T08:24:18.273Z,50.93
2018-12-24T08:26:45.521Z,50.97
2018-12-24T08:29:12.753Z,50.90
2018-12-24T08:31:39.986Z,50.89
2018-12-24T08:34:07.188Z,50.86
2018-12-24T08:36:34.449Z,50.79
2018-12-24T08:39:01.634Z,50.80
2018-12-24T08:41:28.891Z,50.69
2018-12-24T08:43:56.099Z,50.64
2018-12-24T08:46:23.320Z,50.62
2018-12-24T08:48:50.593Z,50.63
2018-12-24T08:51:17.829Z,50.68
2018-12-24T08:54:04.435Z,50.57
2018-12-24T08:56:31.759Z,50.57
2018-12-24T08:59:18.364Z,50.35
2018-12-24T09:01:45.626Z,50.35
2018-12-24T09:04:12.846Z,50.44
2018-12-24T09:06:40.076Z,50.44
2018-12-24T09:09:26.736Z,50.58
2018-12-24T09:12:13.349Z,50.39
2018-12-24T09:14:40.579Z,50.39
2018-12-24T09:17:07.810Z,50.32
2018-12-24T09:19:35.043Z,50.25
2018-12-24T09:22:02.248Z,50.21
2018-12-24T09:24:29.475Z,50.24
2018-12-24T09:26:56.722Z,50.17
2018-12-24T09:29:23.954Z,50.10
2018-12-24T09:31:51.184Z,49.97
2018-12-24T09:34:18.417Z,49.97
2018-12-24T09:36:45.645Z,50.14
2018-12-24T09:39:12.870Z,50.19
2018-12-24T09:41:40.100Z,50.28
2018-12-24T09:44:07.295Z,50.21
2018-12-24T09:46:34.584Z,50.19
2018-12-24T09:49:01.807Z,50.12
2018-12-24T09:51:29.088Z,50.14
2018-12-24T09:53:56.300Z,50.10
2018-12-24T09:56:23.480Z,50.10
2018-12-24T09:58:50.696Z,50.17
2018-12-24T10:01:17.881Z,50.10
2018-12-24T10:04:09.034Z,50.06
2018-12-24T10:06:38.105Z,49.97
2018-12-24T10:09:24.740Z,49.92
2018-12-24T10:11:51.957Z,49.90
2018-12-24T10:14:19.219Z,49.86
2018-12-24T10:16:46.382Z,49.77
2018-12-24T10:19:13.593Z,49.69
2018-12-24T10:21:40.780Z,49.55
2018-12-24T10:24:08.008Z,49.20
2018-12-24T10:26:35.207Z,49.01
2018-12-24T10:29:02.398Z,48.96
2018-12-24T10:31:29.603Z,48.99
2018-12-24T10:33:56.890Z,49.07
2018-12-24T10:36:24.106Z,49.22
2018-12-24T10:38:51.310Z,49.02
2018-12-24T10:41:21.366Z,49.13
2018-12-24T10:43:48.571Z,49.15
2018-12-24T10:46:15.769Z,49.01
2018-12-24T10:48:42.980Z,49.17
2018-12-24T10:51:10.224Z,49.10
2018-12-24T10:53:37.419Z,49.16
2018-12-24T10:56:04.706Z,49.26
2018-12-24T10:58:31.935Z,49.22
2018-12-24T11:00:59.146Z,49.10
2018-12-24T11:03:26.381Z,49.20
2018-12-24T11:05:53.576Z,49.25
2018-12-24T11:08:20.808Z,49.27
2018-12-24T11:10:48.023Z,49.18
2018-12-24T11:13:15.217Z,49.08
2018-12-24T11:15:42.418Z,49.09
2018-12-24T11:18:09.632Z,49.10
2018-12-24T11:20:36.886Z,49.20
2018-12-24T11:23:04.109Z,49.19
2018-12-24T11:25:31.376Z,49.15
2018-12-24T11:27:58.585Z,49.23
2018-12-24T11:30:25.807Z,49.13
2018-12-24T11:32:53.016Z,49.14
2018-12-24T11:35:20.236Z,48.98
2018-12-24T11:37:47.466Z,49.08
2018-12-24T11:40:14.680Z,49.06
2018-12-24T11:42:41.939Z,49.02
2018-12-24T11:45:09.156Z,49.01
2018-12-24T11:47:36.393Z,48.94
2018-12-24T11:50:03.622Z,48.90
2018-12-24T11:52:30.826Z,48.86
2018-12-24T11:54:58.062Z,48.90
2018-12-24T11:57:25.231Z,48.92
2018-12-24T11:59:52.415Z,48.95
2018-12-24T12:02:19.663Z,48.86
2018-12-24T12:04:46.894Z,48.90
2018-12-24T12:07:14.092Z,48.80
2018-12-24T12:09:41.277Z,48.77
2018-12-24T12:12:08.459Z,48.75
2018-12-24T12:14:35.668Z,48.81
2018-12-24T12:17:03.060Z,48.67
2018-12-24T12:19:30.260Z,48.67
2018-12-24T12:21:57.458Z,48.75
2018-12-24T12:24:24.697Z,48.80
2018-12-24T12:26:51.907Z,48.91
2018-12-24T12:29:19.151Z,48.99
2018-12-24T12:31:46.328Z,49.02
2018-12-24T12:34:13.545Z,48.95
2018-12-24T12:36:40.708Z,48.90
2018-12-24T12:39:07.902Z,48.92
2018-12-24T12:41:35.057Z,49.00
2018-12-24T12:44:02.290Z,48.93
2018-12-24T12:46:29.511Z,49.09
2018-12-24T12:48:56.812Z,49.14
2018-12-24T12:51:24.016Z,49.15
2018-12-24T12:53:51.199Z,49.06
2018-12-24T12:56:18.395Z,48.98
2018-12-24T12:58:45.584Z,49.02
2018-12-24T13:01:12.786Z,48.95
2018-12-24T13:03:39.987Z,48.95
2018-12-24T13:06:07.186Z,48.88
2018-12-24T13:08:34.407Z,48.92
2018-12-24T13:11:01.741Z,48.86
2018-12-24T13:13:36.538Z,48.88
2018-12-24T13:15:59.709Z,48.81
2018-12-24T13:18:27.136Z,48.74
2018-12-24T13:20:54.403Z,48.60
2018-12-24T13:23:21.618Z,48.70
2018-12-24T13:25:48.810Z,48.62
2018-12-24T13:28:16.023Z,48.51
2018-12-24T13:30:43.220Z,48.58
2018-12-24T13:33:10.419Z,48.51
2018-12-24T13:35:37.657Z,48.45
2018-12-24T13:38:04.862Z,48.45
2018-12-24T13:40:32.063Z,48.35
2018-12-24T13:42:59.344Z,48.40
2018-12-24T13:45:26.532Z,48.40
2018-12-24T13:47:53.793Z,48.51
2018-12-24T13:50:20.985Z,48.55
2018-12-24T13:52:48.222Z,48.70
2018-12-24T13:55:15.439Z,48.63
2018-12-24T13:57:42.607Z,48.60
2018-12-24T14:00:09.991Z,48.67
2018-12-24T14:02:37.233Z,48.63
2018-12-24T14:05:04.480Z,48.69
2018-12-24T14:07:31.701Z,48.64
2018-12-24T14:09:58.924Z,48.63
2018-12-24T14:12:26.184Z,48.67
2018-12-24T14:14:53.399Z,48.64
2018-12-24T14:17:20.642Z,48.67
2018-12-24T14:19:47.832Z,48.55
2018-12-24T14:22:15.011Z,48.68
2018-12-24T14:24:42.259Z,48.76
2018-12-24T14:27:09.417Z,48.70
2018-12-24T14:29:38.886Z,48.67
2018-12-24T14:32:06.080Z,48.64
2018-12-24T14:34:33.379Z,48.72
2018-12-24T14:37:00.552Z,48.69
2018-12-24T14:39:27.735Z,48.83
2018-12-24T14:41:54.897Z,48.78
2018-12-24T14:44:22.226Z,48.73
2018-12-24T14:46:49.384Z,48.83
2018-12-24T14:49:16.605Z,48.74
2018-12-24T14:51:43.829Z,48.67
2018-12-24T14:54:11.025Z,48.78
2018-12-24T14:56:38.254Z,48.70
2018-12-24T14:59:05.441Z,48.84
2018-12-24T15:01:32.692Z,48.79
2018-12-24T15:03:59.927Z,48.82
2018-12-24T15:06:27.115Z,48.85
2018-12-24T15:08:54.297Z,48.84
2018-12-24T15:11:21.507Z,48.99
2018-12-24T15:13:48.733Z,49.01
2018-12-24T15:16:15.966Z,48.99
2018-12-24T15:18:43.170Z,49.11
2018-12-24T15:21:10.400Z,49.12
2018-12-24T15:23:37.589Z,49.13
2018-12-24T15:26:04.763Z,49.17
2018-12-24T15:28:31.995Z,49.16
2018-12-24T15:31:18.621Z,49.29
2018-12-24T15:33:45.846Z,49.29
2018-12-24T15:36:32.429Z,49.11
2018-12-24T15:39:19.046Z,48.89
2018-12-24T15:41:46.258Z,48.89
2018-12-24T15:44:13.510Z,49.04
2018-12-24T15:46:42.781Z,49.09
2018-12-24T15:49:09.826Z,49.15
2018-12-24T15:51:37.093Z,49.15
2018-12-24T15:54:04.320Z,49.16
2018-12-24T15:56:31.494Z,49.11
2018-12-24T15:58:58.761Z,49.14
2018-12-24T16:01:25.970Z,49.13
2018-12-24T16:03:53.348Z,49.12
2018-12-24T16:06:20.555Z,49.17
2018-12-24T16:08:47.743Z,49.19
2018-12-24T16:11:14.954Z,49.22
2018-12-24T16:13:42.110Z,49.44
2018-12-24T16:16:09.323Z,49.06
2018-12-24T16:18:36.488Z,49.10
2018-12-24T16:21:03.738Z,49.14
2018-12-24T16:23:30.946Z,49.13
2018-12-24T16:25:58.145Z,49.09
2018-12-24T16:28:25.336Z,49.10
2018-12-24T16:30:52.532Z,49.09
2018-12-24T16:33:19.768Z,49.09
2018-12-24T16:35:46.923Z,49.19
2018-12-24T16:38:14.130Z,49.23
2018-12-24T16:41:00.737Z,49.08
2018-12-24T16:43:27.986Z,48.84
2018-12-24T16:45:55.205Z,48.84
2018-12-24T16:48:41.850Z,49.10
2018-12-24T16:51:09.062Z,49.34
2018-12-24T16:53:55.720Z,49.18
2018-12-24T16:56:22.932Z,49.18
2018-12-24T16:58:50.281Z,49.21
2018-12-24T17:01:17.494Z,49.20
2018-12-24T17:03:44.714Z,49.34
2018-12-24T17:06:11.968Z,49.34
2018-12-24T17:09:00.204Z,49.01
2018-12-24T17:11:47.125Z,49.36
2018-12-24T17:14:14.341Z,49.36
2018-12-24T17:16:41.583Z,49.11
2018-12-24T17:19:28.205Z,49.18
2018-12-24T17:21:55.433Z,49.18
2018-12-24T17:24:22.629Z,49.14
2018-12-24T17:26:49.836Z,49.10
2018-12-24T17:29:17.041Z,49.01
2018-12-24T17:31:44.262Z,49.02
2018-12-24T17:34:11.575Z,49.04
2018-12-24T17:36:38.758Z,49.05
2018-12-24T17:39:07.899Z,49.18
2018-12-24T17:41:35.220Z,49.18
2018-12-24T17:44:02.426Z,49.05
2018-12-24T17:46:43.181Z,49.21
2018-12-24T17:49:10.519Z,49.29
2018-12-24T17:51:37.701Z,49.29
2018-12-24T17:54:24.309Z,48.86
2018-12-24T17:56:51.454Z,48.86
2018-12-24T17:59:18.629Z,49.01
2018-12-24T18:01:45.827Z,49.07
2018-12-24T18:04:13.027Z,49.23
2018-12-24T18:06:40.321Z,49.23
2018-12-24T18:09:07.602Z,49.03
2018-12-24T18:11:34.855Z,49.01
2018-12-24T18:14:02.044Z,49.01
2018-12-24T18:16:29.333Z,49.04
2018-12-24T18:18:56.545Z,49.07
2018-12-24T18:21:23.760Z,49.09
2018-12-24T18:23:51.018Z,49.06
2018-12-24T18:26:18.193Z,49.06
2018-12-24T18:28:45.437Z,49.08
2018-12-24T18:31:19.726Z,49.03
2018-12-24T18:33:41.826Z,49.03
2018-12-24T18:36:08.980Z,49.02
2018-12-24T18:38:36.228Z,49.01
2018-12-24T18:41:03.445Z,49.00
2018-12-24T18:43:30.665Z,48.98
2018-12-24T18:45:57.919Z,48.98
2018-12-24T18:48:25.120Z,48.98
2018-12-24T18:50:52.337Z,49.01
2018-12-24T18:53:19.500Z,48.93
2018-12-24T18:55:46.675Z,48.99
2018-12-24T18:58:13.920Z,48.99
2018-12-24T19:00:41.145Z,48.95
2018-12-24T19:03:08.367Z,48.96
2018-12-24T19:05:35.582Z,48.92
2018-12-24T19:08:02.820Z,48.92
2018-12-24T19:10:30.015Z,48.91
2018-12-24T19:12:57.270Z,48.94
2018-12-24T19:15:24.465Z,48.89
2018-12-24T19:17:51.620Z,48.89
2018-12-24T19:20:18.852Z,48.88
2018-12-24T19:22:46.025Z,48.97
2018-12-24T19:25:13.348Z,48.89
2018-12-24T19:27:40.509Z,48.94
2018-12-24T19:30:08.582Z,48.94
2018-12-24T19:32:35.782Z,48.94
2018-12-24T19:35:03.099Z,49.03
2018-12-24T19:37:30.260Z,48.97
2018-12-24T19:39:57.500Z,48.96
2018-12-24T19:42:24.730Z,48.87
2018-12-24T19:44:51.921Z,48.88
2018-12-24T19:47:19.162Z,48.87
2018-12-24T19:49:46.368Z,48.78
2018-12-24T19:52:13.605Z,48.82
2018-12-24T19:54:40.785Z,48.86
2018-12-24T19:57:08.098Z,48.83
2018-12-24T19:59:35.360Z,48.81
2018-12-24T20:02:02.565Z,48.76
2018-12-24T20:04:29.767Z,48.75
2018-12-24T20:06:57.097Z,48.73
2018-12-24T20:09:24.306Z,48.71
2018-12-24T20:11:51.544Z,48.69
2018-12-24T20:14:18.771Z,48.65
2018-12-24T20:16:45.969Z,48.68
2018-12-24T20:19:13.176Z,48.66
2018-12-24T20:21:40.399Z,48.70
2018-12-24T20:24:07.746Z,48.71
2018-12-24T20:26:34.951Z,48.75
2018-12-24T20:29:02.140Z,48.78
2018-12-24T20:31:29.366Z,48.75
2018-12-24T20:33:56.556Z,48.77
2018-12-24T20:36:23.768Z,48.80
2018-12-24T20:38:51.110Z,48.76
2018-12-24T20:41:18.285Z,48.82
2018-12-24T20:43:45.438Z,48.80
2018-12-24T20:46:12.713Z,48.83
2018-12-24T20:48:39.915Z,48.83
2018-12-24T20:51:07.134Z,48.83
2018-12-24T20:53:34.293Z,48.85
2018-12-24T20:56:01.528Z,48.89
2018-12-24T20:58:28.766Z,48.92
2018-12-24T21:00:55.932Z,48.94
2018-12-24T21:03:23.273Z,48.90
2018-12-24T21:05:50.501Z,48.86
2018-12-24T21:08:17.670Z,48.90
2018-12-24T21:10:44.916Z,48.87
2018-12-24T21:13:12.105Z,48.85
2018-12-24T21:15:39.306Z,48.86
2018-12-24T21:18:11.390Z,48.86
2018-12-24T21:20:35.620Z,48.86
2018-12-24T21:23:02.860Z,48.81
2018-12-24T21:25:30.061Z,48.76
2018-12-24T21:27:57.320Z,48.71
2018-12-24T21:30:24.508Z,48.66
2018-12-24T21:32:51.757Z,48.71
2018-12-24T21:35:18.971Z,48.73
2018-12-24T21:37:46.188Z,48.69
2018-12-24T21:40:13.358Z,48.73
2018-12-24T21:42:40.625Z,48.73
2018-12-24T21:45:07.811Z,48.64
2018-12-24T21:47:35.192Z,48.64
2018-12-24T21:50:02.402Z,48.73
2018-12-24T21:52:29.621Z,48.71
2018-12-24T21:54:56.873Z,48.86
2018-12-24T21:57:24.076Z,48.50
2018-12-24T21:59:51.333Z,48.50
2018-12-24T22:02:18.639Z,48.61
2018-12-24T22:04:45.878Z,48.67
2018-12-24T22:07:13.038Z,48.69
2018-12-24T22:09:40.285Z,48.58
2018-12-24T22:12:07.516Z,48.64
2018-12-24T22:14:34.712Z,48.66
2018-12-24T22:17:01.965Z,48.84
2018-12-24T22:19:29.173Z,48.84
2018-12-24T22:21:56.395Z,48.64
2018-12-24T22:24:23.626Z,48.65
2018-12-24T22:26:50.900Z,48.59
2018-12-24T22:29:18.110Z,48.63
2018-12-24T22:31:45.335Z,48.61
2018-12-24T22:34:12.555Z,48.55
2018-12-24T22:36:39.813Z,48.56
2018-12-24T22:39:07.320Z,48.54
2018-12-24T22:41:34.554Z,48.59
2018-12-24T22:44:01.784Z,48.59
2018-12-24T22:46:29.109Z,48.58
2018-12-24T22:48:56.347Z,48.54
2018-12-24T22:51:23.561Z,48.51
2018-12-24T22:53:50.850Z,48.59
2018-12-24T22:56:18.054Z,48.58
2018-12-24T22:58:45.236Z,48.55
2018-12-24T23:01:12.670Z,48.53
2018-12-24T23:03:39.857Z,48.49
2018-12-24T23:06:07.058Z,48.50
2018-12-24T23:08:34.249Z,48.54
2018-12-24T23:11:01.444Z,48.49
2018-12-24T23:13:28.770Z,48.51
2018-12-24T23:15:56.045Z,48.51
2018-12-24T23:18:23.265Z,48.58
2018-12-24T23:20:50.476Z,48.47
2018-12-24T23:23:17.670Z,48.52
2018-12-24T23:25:44.989Z,48.44
2018-12-24T23:28:12.204Z,48.47
2018-12-24T23:30:39.372Z,48.49
2018-12-24T23:33:06.624Z,48.47
2018-12-24T23:35:33.912Z,48.47
2018-12-24T23:38:01.082Z,48.50
2018-12-24T23:40:47.766Z,48.53
2018-12-24T23:43:15.030Z,48.54
2018-12-24T23:45:42.344Z,48.49
2018-12-24T23:48:09.604Z,48.57
2018-12-24T23:50:36.869Z,48.53
2018-12-24T23:53:04.058Z,48.53
2018-12-24T23:55:31.238Z,48.54
2018-12-24T23:57:58.501Z,48.54
